El Paso International Airport
KELP : now visible

Aeroporto :











RITROVATECI SU...

 
LOGIN :

Iscrizione | Disclaimer

   EN    FR    IT 

 









Sommario :    VFR   VFR Marginale   IFR   IFR Intensivo   IFR Molto Intensivo
Visibilità : 
Base nubi : 
>= 8 km
>= 3000ft
5 / 8 km
1000 / 3000 ft
1500m / 5 km
500 / 1000 ft
800 / 1500m
200 / 500 ft
< 800m
< 200 ft
Simboli :   Temporali  Nebbia  Neve Forte  Precipitazioni Forti  Vento > 20 kt






- Altitudine del aeroporto : 3959 ft
- Codice IATA : ELP


KELP - El Paso International

ULTIMO METAR :
  • 180551Z 16008KT 10SM FEW085 21/09 A2985 RMK AO2 SLP048 T02060094 10267 20206 51002

METARs OBSOLETI :
  • 180451Z 18006KT 10SM FEW085 22/09 A2986 RMK AO2 SLP050 T02170094
  • 180351Z 16009KT 10SM FEW085 FEW250 23/09 A2986 RMK AO2 SLP050 T02280089

TAF KELP
Valido dal 18 a 06 ore il 19 a 06 ore UTC


180520Z 1806/1906 21008KT P6SM SCT080 SCT250
FM181400 26012G20KT P6SM SCT080 SCT250
FM181700 26018G28KT P6SM SCT250
FM190200 28014KT P6SM FEW250



MetMap, La meteo Aeronautica in un colpo d'occhio ! - Copyright ORBIFLY Dicembre 2007 - Disclaimer

ORBIFLY MET'MAP TEAM :

Programmazione e sviluppo : Alexandra Zaïnal
Concezione e sviluppo : Baudouin d'Aumeries
Co-Programmazione e sviluppo : Marc-Olivier Méhu
Supporto tecnico e logistico : Manuel Goepfert
Aiuto per la traduzione : Arnaldo La Scala

Contatto : metmap@orbifly.com




FONTI E CREDITI :

   NOAA       Earth
Advisory